19:18
Airports
History
Links
Donate
Help keep this website running!
PayPal
Bitcoin
This page is community maintained. The information is intended for PC simulator navigation or reference.
Always use approved charts for navigation.
UIII
Irkutsk
Irkutsk (UIII)
Dzerzhinsk, Irkutskaya oblast, Russian Federation
(C)
Lat/Lng:52° 15' 59.17" N / 104° 23' 44.5" E
52.266437 / 104.395694
Elevation:1675'ft / 511mMSL
ID / ICAO:UIII
Runways:1
Longest:12-30
Concrete 3,170m / 10,402ft
Controlled:Yes
METAR19:00 GMT 2017-11-18
Altimeter: 30.24
Visibility: 6.2 statute miles
Wind: 3.9 knots (from 160°)
Temp: -8°c / 18°f
Humidity: 85.4%

METAR: UIII 181900Z 16002MPS CAVOK M08/M10 Q1024 R30/CLRD60 NOSIG RMK QFE723/0964

(Powered by phpweather)
Airport Radio Frequencies
ATIS: 124.85
ATIS: 126.9
Ground: 121.7
Tower: 118.1
Approach: 124, 125.2
Nearby VORs <50NM
Nearby NDBs
Runway 12 / 30
Dimensions:3170.4 x 45.1m 10402' x 148'ft
Surface:Concrete
Edge Lights:High intensity
Runway 12 [A]Runway 30 [B]
Heading:113°TH 293°TH
Lat:
Lng:
52° 16' 19.81"N
104° 22' 27.69"E
52° 15' 38.54"N
104° 25' 1.31"E
ALS:MALSRAIL
TDZ:Yes, lighted
User Notes and Comments
52° 15' 59.17" N / 104° 23' 44.5" E
Distance To
Airport ID:
Nearby Airports
(U) Irkutsk Northwest 11.4 NM
UIIR NW 307°
4 Oyek 19.8 NM
XIIO N
(C) Ust-Ordynskiy 41.3 NM
UIIO NNE 19°
(C) Belaya 56.5 NM
UIIB NW 322°
4 Belsk 68.8 NM
UI10 NW 308°
4 Nizhnyaya Iret 93.7 NM
UI96 WNW 302°
4 Kyren 103.5 NM
UIIN WSW 246°
VFR Chart
Flight Planning at SkyVector.com